Time;durP1;ratioP1;P1;durP2;ratioP2;P2;SDS_P1;SDS_P2;PMS_P1;PMS_P2;Temp;Humidity;BMP_temperature;BMP_pressure;BME280_temperature;BME280_humidity;BME280_pressure;Samples;Min_cycle;Max_cycle;Signal;HPM_P1;HPM_P2
2021/12/22 00:02:00;;;;;;;;;;;;;;;-0.46;54.58;99977.78;5093627;28;19957;-76
2021/12/22 00:04:25;;;;;;;;;;;;;;;-0.46;54.66;99980.41;5094328;28;20298;-76
2021/12/22 00:06:51;;;;;;;;;;;;;;;-0.44;54.29;99979.28;5127082;27;19931;-76
2021/12/22 00:09:16;;;;;;;;;;;;;;;-0.43;54.11;99986.13;5112375;28;19915;-77
2021/12/22 00:11:43;;;;;;;;;;;;;;;-0.45;54.25;99996.03;5093635;28;19922;-75
2021/12/22 00:14:09;;;;;;;;;;;;;;;-0.45;53.73;99989.94;5111394;27;19919;-75
2021/12/22 00:16:34;;;;;;;;;;;;;;;-0.45;54.04;99989.94;5128384;27;20303;-75
2021/12/22 00:18:59;;;;;;;;;;;;;;;-0.46;53.92;100001.44;5118341;27;19924;-75
2021/12/22 00:21:24;;;;;;;;;;;;;;;-0.45;54.09;99987.31;5100209;28;19927;-75
2021/12/22 00:23:50;;;;;;;;;;;;;;;-0.43;54.16;99990.59;5111187;28;19942;-75
2021/12/22 00:26:15;;;;;;;;;;;;;;;-0.45;54.41;99988.16;5114616;27;20018;-74
2021/12/22 00:28:41;;;;;;;;;;;;;;;-0.43;54.22;99986.13;5111273;28;19942;-75
2021/12/22 00:31:12;;;;;;;;;;;;;;;-0.44;54.61;99994.19;5112147;28;19954;-75
2021/12/22 00:33:45;;;;;;;;;;;;;;;-0.43;54.27;99985.31;5093401;28;19967;-75
2021/12/22 00:36:11;;;;;;;;;;;;;;;-0.43;54.33;99988.75;5093513;28;19920;-74
2021/12/22 00:38:36;;;;;;;;;;;;;;;-0.43;53.96;99995.84;5110478;28;20427;-75
2021/12/22 00:41:01;;;;;;;;;;;;;;;-0.44;54.31;99996.84;5100405;28;19923;-74
2021/12/22 00:43:26;;;;;;;;;;;;;;;-0.44;54.63;100000.28;5111712;28;19920;-73
2021/12/22 00:45:56;;;;;;;;;;;;;;;-0.43;54.23;100001.91;5108124;27;19927;-74
2021/12/22 00:48:21;;;;;;;;;;;;;;;-0.43;54.49;100008.97;5110119;28;19927;-73
2021/12/22 00:50:46;;;;;;;;;;;;;;;-0.44;54.53;100009.97;5106796;28;20288;-75
2021/12/22 00:53:11;;;;;;;;;;;;;;;-0.43;54.95;100015.03;5109620;28;19920;-74
2021/12/22 00:55:37;;;;;;;;;;;;;;;-0.45;54.37;100005.69;5110914;28;20014;-74
2021/12/22 00:58:04;;;;;;;;;;;;;;;-0.45;54.33;100005.69;5111156;28;19920;-73
2021/12/22 01:00:29;;;;;;;;;;;;;;;-0.46;54.63;100011.94;5081652;28;20390;-74
2021/12/22 01:02:54;;;;;;;;;;;;;;;-0.54;53.99;100007.59;5092875;28;19928;-75
2021/12/22 01:05:20;;;;;;;;;;;;;;;-0.55;55.02;100003.34;5112645;28;19919;-74
2021/12/22 01:07:47;;;;;;;;;;;;;;;-0.61;54.19;100007.53;5115581;28;20401;-76
2021/12/22 01:10:13;;;;;;;;;;;;;;;-0.61;55.09;100004.06;5097036;28;20014;-77
2021/12/22 01:12:38;;;;;;;;;;;;;;;-0.65;54.69;99999.19;5096713;28;20014;-79
2021/12/22 01:15:05;;;;;;;;;;;;;;;-0.63;54.79;100004.25;5096797;28;20011;-81
2021/12/22 01:17:37;;;;;;;;;;;;;;;-0.63;54.48;100001.63;5097341;28;19973;-78
2021/12/22 01:20:14;;;;;;;;;;;;;;;-0.61;54.29;99985.66;5096862;28;19920;-79
2021/12/22 01:25:09;;;;;;;;;;;;;;;-0.61;54.62;99991.75;5115410;28;19959;-76
2021/12/22 01:27:39;;;;;;;;;;;;;;;-0.61;53.92;99985.66;5096354;28;19960;-77
2021/12/22 01:30:05;;;;;;;;;;;;;;;-0.62;54.66;99995.38;5097002;28;20014;-77
2021/12/22 01:32:31;;;;;;;;;;;;;;;-0.68;55.17;99993.47;5097139;28;19920;-77
2021/12/22 01:34:56;;;;;;;;;;;;;;;-0.78;55.30;99985.00;5095457;28;20390;-76
2021/12/22 01:37:22;;;;;;;;;;;;;;;-0.90;55.02;99989.88;5096832;28;19923;-78
2021/12/22 01:39:47;;;;;;;;;;;;;;;-0.94;55.89;99989.44;5096350;28;19938;-77
2021/12/22 01:42:12;;;;;;;;;;;;;;;-1.00;56.83;99987.47;5096421;28;19927;-78
2021/12/22 01:45:27;;;;;;;;;;;;;;;-1.03;57.08;99982.59;5096416;28;19927;-81
2021/12/22 01:50:16;;;;;;;;;;;;;;;-1.06;56.89;99975.06;5114273;28;19926;-75
2021/12/22 01:52:42;;;;;;;;;;;;;;;-1.09;57.22;99973.59;5114760;28;19927;-77
2021/12/22 01:55:15;;;;;;;;;;;;;;;-1.09;57.38;99972.81;5096240;28;20337;-75
2021/12/22 01:57:44;;;;;;;;;;;;;;;-1.11;57.61;99970.38;5096046;28;19927;-74
2021/12/22 02:00:10;;;;;;;;;;;;;;;-1.13;57.27;99973.13;5096597;28;19920;-75
2021/12/22 02:02:35;;;;;;;;;;;;;;;-1.10;58.05;99973.78;5113806;28;19926;-76
2021/12/22 02:05:00;;;;;;;;;;;;;;;-1.14;58.33;99973.31;5113794;28;19949;-75
2021/12/22 02:07:26;;;;;;;;;;;;;;;-1.17;58.38;99985.00;5114265;28;19935;-73
2021/12/22 02:12:19;;;;;;;;;;;;;;;-1.09;58.40;99989.34;5114233;28;20405;-79
2021/12/22 02:14:46;;;;;;;;;;;;;;;-1.05;58.04;99993.28;5095902;28;19945;-77
2021/12/22 02:17:12;;;;;;;;;;;;;;;-1.03;57.83;99988.66;5113898;28;19919;-77
2021/12/22 02:19:42;;;;;;;;;;;;;;;-0.99;57.65;99991.75;5095476;28;20378;-73
2021/12/22 02:22:11;;;;;;;;;;;;;;;-0.98;58.03;99994.22;5114257;28;19920;-74
2021/12/22 02:24:36;;;;;;;;;;;;;;;-0.94;57.96;99999.94;5112241;28;19920;-74
2021/12/22 02:27:07;;;;;;;;;;;;;;;-0.92;58.68;99991.88;5114361;27;19924;-74
2021/12/22 02:29:37;;;;;;;;;;;;;;;-0.90;58.81;99995.94;5113500;28;19979;-74
2021/12/22 02:33:07;;;;;;;;;;;;;;;-0.89;58.95;99997.59;5110811;28;19919;-73
2021/12/22 02:34:51;;;;;;;;;;;;;;;-0.85;59.60;99998.03;5106143;28;19970;-73
2021/12/22 02:37:23;;;;;;;;;;;;;;;-0.85;59.44;99996.22;5113486;28;19920;-74
2021/12/22 02:39:58;;;;;;;;;;;;;;;-0.84;60.00;100000.50;5113822;28;20072;-73
2021/12/22 02:42:27;;;;;;;;;;;;;;;-0.83;59.58;100002.13;5113825;28;19920;-72
2021/12/22 02:44:52;;;;;;;;;;;;;;;-0.82;59.82;100003.75;5113014;28;19924;-73
2021/12/22 02:47:22;;;;;;;;;;;;;;;-0.82;59.99;100002.94;5113669;28;19920;-74
2021/12/22 02:49:47;;;;;;;;;;;;;;;-0.81;59.98;100005.41;5113204;28;19920;-74
2021/12/22 02:52:13;;;;;;;;;;;;;;;-0.81;60.39;100008.03;5113655;28;20386;-74
2021/12/22 02:54:47;;;;;;;;;;;;;;;-0.83;60.04;100002.13;5113719;28;20010;-74
2021/12/22 02:57:25;;;;;;;;;;;;;;;-0.86;59.86;100004.28;5113235;28;19930;-75
2021/12/22 03:03:00;;;;;;;;;;;;;;;-0.91;60.66;100007.44;5113070;28;20364;-73
2021/12/22 03:05:28;;;;;;;;;;;;;;;-0.92;61.09;99997.91;5114015;28;19916;-74
2021/12/22 03:07:53;;;;;;;;;;;;;;;-0.89;60.91;100002.00;5112821;28;19958;-74
2021/12/22 03:10:19;;;;;;;;;;;;;;;-0.87;61.19;100002.66;5112992;28;19956;-76
2021/12/22 03:12:46;;;;;;;;;;;;;;;-0.87;60.97;100002.66;5113341;28;19920;-78
2021/12/22 03:15:12;;;;;;;;;;;;;;;-0.85;61.42;100003.28;5095119;28;19924;-78
2021/12/22 03:17:38;;;;;;;;;;;;;;;-0.84;61.48;100000.50;5112653;28;19926;-77
2021/12/22 03:20:05;;;;;;;;;;;;;;;-0.83;60.93;100012.63;5095204;28;19915;-77
2021/12/22 03:22:30;;;;;;;;;;;;;;;-0.84;61.32;100008.38;5094168;28;19969;-78
2021/12/22 03:24:55;;;;;;;;;;;;;;;-0.83;61.37;100010.00;5094506;28;19969;-77
2021/12/22 03:27:22;;;;;;;;;;;;;;;-0.83;60.97;100010.00;5094120;28;19920;-73
2021/12/22 03:29:47;;;;;;;;;;;;;;;-0.81;61.24;100020.31;5112485;28;19920;-73
2021/12/22 03:32:12;;;;;;;;;;;;;;;-0.79;60.87;100012.25;5112427;28;20064;-75
2021/12/22 03:34:39;;;;;;;;;;;;;;;-0.78;60.72;100011.28;5094287;28;19920;-76
2021/12/22 03:37:04;;;;;;;;;;;;;;;-0.77;60.97;100013.72;5094500;28;19920;-79
2021/12/22 03:39:30;;;;;;;;;;;;;;;-0.74;61.10;100012.56;5094305;28;19926;-77
2021/12/22 03:41:55;;;;;;;;;;;;;;;-0.73;60.94;100016.81;5093859;28;19988;-78
2021/12/22 03:44:21;;;;;;;;;;;;;;;-0.71;60.56;100017.44;5112734;28;20006;-77
2021/12/22 03:46:46;;;;;;;;;;;;;;;-0.71;60.73;100020.91;5094026;28;20022;-80
2021/12/22 03:49:12;;;;;;;;;;;;;;;-0.68;60.68;100017.91;5094468;28;19920;-78
2021/12/22 03:51:38;;;;;;;;;;;;;;;-0.66;60.93;100020.34;5093993;28;19915;-78
2021/12/22 03:54:05;;;;;;;;;;;;;;;-0.65;60.78;100022.00;5093991;28;19972;-77
2021/12/22 03:56:30;;;;;;;;;;;;;;;-0.66;60.93;100021.19;5093797;28;19938;-78
2021/12/22 03:58:55;;;;;;;;;;;;;;;-0.65;61.00;100022.00;5093885;28;20297;-75
2021/12/22 04:01:20;;;;;;;;;;;;;;;-0.65;61.00;100024.63;5116717;27;20355;-77
2021/12/22 04:03:49;;;;;;;;;;;;;;;-0.65;61.29;100030.69;5092415;28;19920;-78
2021/12/22 04:06:15;;;;;;;;;;;;;;;-0.62;61.18;100023.44;5093943;28;19920;-78
2021/12/22 04:08:40;;;;;;;;;;;;;;;-0.64;61.43;100021.00;5093406;28;19957;-78
2021/12/22 04:11:05;;;;;;;;;;;;;;;-0.63;61.85;100035.78;5094092;28;19920;-75
2021/12/22 04:13:30;;;;;;;;;;;;;;;-0.62;61.82;100028.69;5093560;28;19951;-81
2021/12/22 04:15:56;;;;;;;;;;;;;;;-0.63;61.67;100020.00;5093708;28;19923;-78
2021/12/22 04:18:21;;;;;;;;;;;;;;;-0.62;62.01;100031.31;5127912;27;19927;-77
2021/12/22 04:20:47;;;;;;;;;;;;;;;-0.63;61.89;100017.38;5093567;28;19920;-78
2021/12/22 04:23:12;;;;;;;;;;;;;;;-0.63;62.09;100027.88;5092809;28;19919;-76
2021/12/22 04:25:38;;;;;;;;;;;;;;;-0.65;61.86;100030.69;5093855;28;20443;-77
2021/12/22 04:28:07;;;;;;;;;;;;;;;-0.66;62.03;100030.84;5111680;28;20383;-74
2021/12/22 04:30:33;;;;;;;;;;;;;;;-0.66;62.58;100036.94;5111865;28;19923;-76
2021/12/22 04:32:59;;;;;;;;;;;;;;;-0.68;62.37;100035.50;5090751;28;19920;-75
2021/12/22 04:35:25;;;;;;;;;;;;;;;-0.76;62.45;100032.94;5092977;28;20306;-76
2021/12/22 04:37:50;;;;;;;;;;;;;;;-0.79;62.91;100033.28;5087702;28;20006;-77
2021/12/22 04:40:16;;;;;;;;;;;;;;;-0.84;63.36;100023.31;5107435;27;19920;-76
2021/12/22 04:42:41;;;;;;;;;;;;;;;-0.91;63.29;100028.44;5088322;28;20342;-76
2021/12/22 04:45:08;;;;;;;;;;;;;;;-0.97;64.06;100031.78;5092383;28;19927;-78
2021/12/22 04:47:34;;;;;;;;;;;;;;;-1.06;63.88;100040.69;5093417;28;19927;-76
2021/12/22 04:50:09;;;;;;;;;;;;;;;-1.16;64.12;100038.31;5093040;28;19916;-75
2021/12/22 04:52:41;;;;;;;;;;;;;;;-1.25;64.35;100040.16;5111644;28;19926;-77
2021/12/22 04:55:07;;;;;;;;;;;;;;;-1.32;64.92;100039.22;5093627;28;19915;-75
2021/12/22 04:57:32;;;;;;;;;;;;;;;-1.36;64.54;100049.25;5092873;28;19949;-75
2021/12/22 04:59:58;;;;;;;;;;;;;;;-1.39;64.73;100039.13;5111480;28;19916;-79
2021/12/22 05:02:23;;;;;;;;;;;;;;;-1.40;64.87;100034.84;5092986;28;20024;-78
2021/12/22 05:04:49;;;;;;;;;;;;;;;-1.41;64.60;100033.22;5092841;28;19920;-78
2021/12/22 05:07:14;;;;;;;;;;;;;;;-1.42;64.81;100038.66;5089272;28;20357;-75
2021/12/22 05:09:39;;;;;;;;;;;;;;;-1.43;65.33;100042.25;5089443;28;19951;-75
2021/12/22 05:12:05;;;;;;;;;;;;;;;-1.45;65.72;100043.25;5088518;28;20011;-79
2021/12/22 05:14:31;;;;;;;;;;;;;;;-1.46;65.65;100043.41;5089410;28;19942;-77
2021/12/22 05:17:01;;;;;;;;;;;;;;;-1.49;65.13;100047.22;5074165;28;19999;-75
2021/12/22 05:19:26;;;;;;;;;;;;;;;-1.48;64.74;100048.84;5085374;28;20383;-77
2021/12/22 05:21:51;;;;;;;;;;;;;;;-1.46;65.04;100051.28;5082231;28;20014;-75
2021/12/22 05:24:17;;;;;;;;;;;;;;;-1.42;64.93;100047.31;5090383;28;19921;-74
2021/12/22 05:26:42;;;;;;;;;;;;;;;-1.40;65.62;100047.97;5088572;28;19924;-79
2021/12/22 05:29:07;;;;;;;;;;;;;;;-1.35;65.88;100052.72;5089533;28;20015;-72
2021/12/22 05:31:33;;;;;;;;;;;;;;;-1.33;65.69;100053.34;5090563;28;20002;-72
2021/12/22 05:33:58;;;;;;;;;;;;;;;-1.31;65.47;100051.38;5090572;28;20432;-73
2021/12/22 05:36:23;;;;;;;;;;;;;;;-1.29;65.38;100050.19;5089682;28;19923;-73
2021/12/22 05:38:49;;;;;;;;;;;;;;;-1.25;65.00;100052.50;5090935;28;19923;-73
2021/12/22 05:41:14;;;;;;;;;;;;;;;-1.23;64.94;100050.50;5090806;28;19957;-74
2021/12/22 05:43:39;;;;;;;;;;;;;;;-1.21;64.79;100054.59;5089537;28;19916;-73
2021/12/22 05:46:05;;;;;;;;;;;;;;;-1.18;64.54;100067.34;5089719;28;19939;-73
2021/12/22 05:48:30;;;;;;;;;;;;;;;-1.17;64.57;100063.75;5091006;28;20035;-73
2021/12/22 05:51:00;;;;;;;;;;;;;;;-1.16;65.00;100065.38;5091347;28;19936;-73
2021/12/22 05:53:26;;;;;;;;;;;;;;;-1.13;64.80;100072.09;5094755;28;19916;-73
2021/12/22 05:55:55;;;;;;;;;;;;;;;-1.13;64.90;100067.66;5093263;28;19927;-73
2021/12/22 05:58:20;;;;;;;;;;;;;;;-1.10;65.31;100065.69;5095001;28;19939;-73
2021/12/22 06:00:46;;;;;;;;;;;;;;;-1.11;66.12;100072.75;5094481;28;20363;-73
2021/12/22 06:03:11;;;;;;;;;;;;;;;-1.10;65.80;100070.94;5094740;28;19959;-73
2021/12/22 06:05:37;;;;;;;;;;;;;;;-1.14;66.35;100068.63;5094276;28;19927;-74
2021/12/22 06:08:03;;;;;;;;;;;;;;;-1.16;66.42;100082.94;5114339;28;19924;-74
2021/12/22 06:10:28;;;;;;;;;;;;;;;-1.19;66.62;100076.22;5114094;28;19915;-74
2021/12/22 06:12:53;;;;;;;;;;;;;;;-1.22;66.56;100073.97;5113879;28;19958;-73
2021/12/22 06:15:19;;;;;;;;;;;;;;;-1.24;66.65;100075.13;5113812;28;20382;-74
2021/12/22 06:17:46;;;;;;;;;;;;;;;-1.28;66.56;100074.66;5113505;28;20378;-73
2021/12/22 06:20:11;;;;;;;;;;;;;;;-1.33;67.08;100074.31;5114017;28;19920;-73
2021/12/22 06:22:36;;;;;;;;;;;;;;;-1.36;67.03;100077.31;5113900;28;19916;-73
2021/12/22 06:25:03;;;;;;;;;;;;;;;-1.38;67.33;100082.75;5113689;28;19969;-73
2021/12/22 06:27:28;;;;;;;;;;;;;;;-1.42;67.04;100085.88;5113447;28;20315;-73
2021/12/22 06:29:53;;;;;;;;;;;;;;;-1.48;66.97;100082.94;5095215;28;19916;-73
2021/12/22 06:32:18;;;;;;;;;;;;;;;-1.49;67.32;100078.69;5113762;28;19972;-73
2021/12/22 06:34:44;;;;;;;;;;;;;;;-1.49;66.87;100083.09;5113240;28;19916;-73
2021/12/22 06:37:11;;;;;;;;;;;;;;;-1.50;67.76;100084.09;5114032;28;20392;-73
2021/12/22 06:39:38;;;;;;;;;;;;;;;-1.51;67.33;100083.28;5113235;28;19915;-72
2021/12/22 06:42:03;;;;;;;;;;;;;;;-1.50;67.15;100087.53;5113080;28;20010;-73
2021/12/22 06:44:29;;;;;;;;;;;;;;;-1.50;66.58;100084.09;5095078;28;20011;-73
2021/12/22 06:46:54;;;;;;;;;;;;;;;-1.50;66.66;100089.34;5112782;28;19920;-72
2021/12/22 06:49:19;;;;;;;;;;;;;;;-1.50;66.83;100089.34;5095093;28;19920;-72
2021/12/22 06:51:45;;;;;;;;;;;;;;;-1.50;66.89;100092.78;5113233;28;20010;-73
2021/12/22 06:54:10;;;;;;;;;;;;;;;-1.50;66.59;100095.41;5095010;28;19927;-74
2021/12/22 06:56:38;;;;;;;;;;;;;;;-1.49;67.08;100096.22;5113603;28;19968;-72
2021/12/22 06:59:05;;;;;;;;;;;;;;;-1.54;67.11;100099.34;5112941;28;19963;-73
2021/12/22 07:01:33;;;;;;;;;;;;;;;-1.60;67.19;100086.91;5112935;28;19920;-72
2021/12/22 07:03:59;;;;;;;;;;;;;;;-1.61;67.21;100085.31;5111927;28;19944;-72
2021/12/22 07:06:24;;;;;;;;;;;;;;;-1.61;67.33;100093.19;5113015;28;19920;-75
2021/12/22 07:08:49;;;;;;;;;;;;;;;-1.59;67.31;100090.38;5112741;28;19916;-74
2021/12/22 07:11:15;;;;;;;;;;;;;;;-1.58;67.14;100097.25;5112927;28;19916;-73
2021/12/22 07:13:40;;;;;;;;;;;;;;;-1.56;67.52;100095.25;5094669;28;20310;-73
2021/12/22 07:16:05;;;;;;;;;;;;;;;-1.53;67.21;100102.81;5112837;28;19916;-74
2021/12/22 07:18:32;;;;;;;;;;;;;;;-1.48;67.61;100095.25;5113524;28;19973;-72
2021/12/22 07:20:58;;;;;;;;;;;;;;;-1.47;67.39;100096.88;5113261;28;19922;-73
2021/12/22 07:23:23;;;;;;;;;;;;;;;-1.45;67.05;100100.97;5113645;28;20363;-73
2021/12/22 07:25:48;;;;;;;;;;;;;;;-1.43;67.30;100108.66;5112812;28;19972;-73
2021/12/22 07:28:14;;;;;;;;;;;;;;;-1.39;66.34;100111.75;5113342;28;19923;-73
2021/12/22 07:30:40;;;;;;;;;;;;;;;-1.39;66.74;100104.72;5113172;28;19938;-72
2021/12/22 07:33:05;;;;;;;;;;;;;;;-1.35;66.59;100100.75;5113011;28;20371;-73
2021/12/22 07:35:38;;;;;;;;;;;;;;;-1.29;66.40;100109.75;5094864;28;20386;-73
2021/12/22 07:38:12;;;;;;;;;;;;;;;-1.24;66.76;100104.00;5112888;28;19916;-73
2021/12/22 07:40:37;;;;;;;;;;;;;;;-1.19;65.84;100109.53;5094761;28;20018;-73
2021/12/22 07:43:03;;;;;;;;;;;;;;;-1.15;65.45;100111.66;5112755;28;19958;-74
2021/12/22 07:45:28;;;;;;;;;;;;;;;-1.07;65.92;100110.78;5112715;28;19923;-73
2021/12/22 07:47:53;;;;;;;;;;;;;;;-0.99;65.34;100116.00;5112448;28;19920;-73
2021/12/22 07:50:19;;;;;;;;;;;;;;;-0.88;64.88;100119.19;5112446;28;19967;-72
2021/12/22 07:52:44;;;;;;;;;;;;;;;-0.74;65.18;100122.88;5112451;28;19922;-73
2021/12/22 07:55:09;;;;;;;;;;;;;;;-0.62;64.65;100120.66;5112390;28;19916;-73
2021/12/22 07:57:34;;;;;;;;;;;;;;;-0.52;64.58;100126.50;5112662;28;20019;-74
2021/12/22 08:00:00;;;;;;;;;;;;;;;-0.42;63.69;100128.88;5112205;28;19938;-72
2021/12/22 08:02:25;;;;;;;;;;;;;;;-0.36;62.83;100126.34;5112613;28;19915;-72
2021/12/22 08:04:50;;;;;;;;;;;;;;;-0.27;62.72;100126.28;5112449;28;19923;-73
2021/12/22 08:07:16;;;;;;;;;;;;;;;-0.19;62.02;100128.84;5094016;28;19919;-73
2021/12/22 08:09:41;;;;;;;;;;;;;;;-0.14;62.04;100123.06;5112700;28;19959;-73
2021/12/22 08:12:06;;;;;;;;;;;;;;;-0.09;62.25;100120.69;5112236;28;19920;-72
2021/12/22 08:14:32;;;;;;;;;;;;;;;0.01;62.19;100117.81;5094206;28;19976;-73
2021/12/22 08:16:58;;;;;;;;;;;;;;;0.10;61.81;100119.38;5112149;28;20418;-73
2021/12/22 08:19:23;;;;;;;;;;;;;;;0.21;61.86;100116.28;5094098;28;19916;-72
2021/12/22 08:21:48;;;;;;;;;;;;;;;0.31;61.26;100122.06;5093782;28;20385;-73
2021/12/22 08:24:14;;;;;;;;;;;;;;;0.42;60.12;100115.53;5111959;28;19922;-72
2021/12/22 08:26:39;;;;;;;;;;;;;;;0.50;59.74;100119.06;5112244;28;19916;-73
2021/12/22 08:29:04;;;;;;;;;;;;;;;0.57;58.89;100119.97;5112166;28;19916;-73
2021/12/22 08:31:30;;;;;;;;;;;;;;;0.61;58.79;100122.06;5112256;28;19916;-73
2021/12/22 08:33:55;;;;;;;;;;;;;;;0.69;59.02;100125.59;5111983;28;20414;-72
2021/12/22 08:39:07;;;;;;;;;;;;;;;0.86;57.61;100115.66;5111661;28;19973;-72
2021/12/22 08:41:33;;;;;;;;;;;;;;;0.93;57.33;100111.28;5111731;28;19920;-73
2021/12/22 08:44:01;;;;;;;;;;;;;;;0.99;57.04;100113.19;5111783;28;19977;-73
2021/12/22 08:46:27;;;;;;;;;;;;;;;1.03;56.84;100108.34;5111973;28;19945;-73
2021/12/22 08:48:52;;;;;;;;;;;;;;;1.07;56.58;100109.59;5093306;28;19920;-72
2021/12/22 08:51:18;;;;;;;;;;;;;;;1.10;56.09;100110.03;5112288;28;19951;-73
2021/12/22 08:53:43;;;;;;;;;;;;;;;1.11;55.71;100114.31;5111900;28;19923;-72
2021/12/22 08:56:08;;;;;;;;;;;;;;;1.11;54.93;100108.22;5111634;28;19916;-72
2021/12/22 08:58:34;;;;;;;;;;;;;;;1.10;55.19;100110.03;5093622;28;20382;-72
2021/12/22 09:01:00;;;;;;;;;;;;;;;1.07;54.45;100105.13;5093315;28;19922;-73
2021/12/22 09:03:25;;;;;;;;;;;;;;;1.05;54.77;100115.06;5111887;28;19923;-73
2021/12/22 09:05:50;;;;;;;;;;;;;;;1.09;55.69;100112.88;5111044;28;19916;-72
2021/12/22 09:08:15;;;;;;;;;;;;;;;1.13;54.79;100108.84;5111838;28;19938;-72
2021/12/22 09:10:41;;;;;;;;;;;;;;;1.14;54.07;100107.84;5111397;28;20384;-72
2021/12/22 09:13:06;;;;;;;;;;;;;;;1.15;53.26;100098.94;5111746;28;19916;-72
2021/12/22 09:15:32;;;;;;;;;;;;;;;1.16;52.82;100102.38;5111644;28;19920;-72
2021/12/22 09:17:57;;;;;;;;;;;;;;;1.15;52.25;100106.03;5111114;28;19923;-72
2021/12/22 09:20:23;;;;;;;;;;;;;;;1.15;51.56;100101.59;5111628;28;20006;-72
2021/12/22 09:22:48;;;;;;;;;;;;;;;1.18;50.82;100093.28;5111453;28;19916;-72
2021/12/22 09:25:14;;;;;;;;;;;;;;;1.22;50.64;100088.47;5111369;28;19920;-72
2021/12/22 09:27:39;;;;;;;;;;;;;;;1.29;50.71;100084.06;5115437;28;19923;-72
2021/12/22 09:30:05;;;;;;;;;;;;;;;1.38;50.66;100082.09;5115368;28;19936;-72
2021/12/22 09:32:31;;;;;;;;;;;;;;;1.46;50.89;100078.53;5115295;28;20310;-72
2021/12/22 09:34:56;;;;;;;;;;;;;;;1.49;50.41;100081.63;5115531;28;19915;-72
2021/12/22 09:37:21;;;;;;;;;;;;;;;1.54;49.58;100076.56;5115409;28;19959;-72
2021/12/22 09:39:47;;;;;;;;;;;;;;;1.61;49.39;100084.53;5115100;28;19965;-72
2021/12/22 09:42:12;;;;;;;;;;;;;;;1.65;49.45;100072.59;5115326;28;19940;-72
2021/12/22 09:44:44;;;;;;;;;;;;;;;1.72;49.27;100072.63;5114982;28;19981;-72
2021/12/22 09:47:10;;;;;;;;;;;;;;;1.77;49.33;100059.72;5096700;28;20295;-72
2021/12/22 09:52:21;;;;;;;;;;;;;;;1.85;49.20;100061.38;5114856;28;19943;-72
2021/12/22 09:54:48;;;;;;;;;;;;;;;1.85;49.50;100054.25;5114513;28;19916;-72
2021/12/22 09:57:16;;;;;;;;;;;;;;;1.91;49.17;100057.97;5115305;28;19916;-72
2021/12/22 09:59:42;;;;;;;;;;;;;;;1.95;48.57;100046.00;5114902;28;19919;-72
2021/12/22 10:02:07;;;;;;;;;;;;;;;1.99;48.10;100043.78;5114716;28;20440;-72
2021/12/22 10:04:33;;;;;;;;;;;;;;;2.01;48.85;100039.94;5114615;28;19916;-71
2021/12/22 10:06:58;;;;;;;;;;;;;;;2.07;49.45;100049.72;5096026;28;19920;-71
2021/12/22 10:09:24;;;;;;;;;;;;;;;2.12;49.29;100043.06;5114383;28;19916;-72
2021/12/22 10:11:50;;;;;;;;;;;;;;;2.14;49.14;100036.56;5096177;28;19999;-72
2021/12/22 10:14:21;;;;;;;;;;;;;;;2.18;48.79;100040.44;5114655;28;20374;-72
2021/12/22 10:16:48;;;;;;;;;;;;;;;2.21;48.83;100039.22;5114511;28;19916;-72
2021/12/22 10:19:13;;;;;;;;;;;;;;;2.21;47.85;100036.59;5114601;28;19916;-71
2021/12/22 10:21:52;;;;;;;;;;;;;;;2.26;47.83;100036.84;5114330;28;19939;-72
2021/12/22 10:24:18;;;;;;;;;;;;;;;2.32;47.65;100036.03;5114577;28;20012;-71
2021/12/22 10:26:43;;;;;;;;;;;;;;;2.35;47.98;100032.19;5114541;28;19920;-72
2021/12/22 10:29:08;;;;;;;;;;;;;;;2.40;47.80;100033.25;5114120;28;19916;-71
2021/12/22 10:31:37;;;;;;;;;;;;;;;2.43;47.78;100029.38;5096049;28;19916;-72
2021/12/22 10:34:06;;;;;;;;;;;;;;;2.47;47.83;100032.44;5114174;28;19920;-72
2021/12/22 10:36:41;;;;;;;;;;;;;;;2.52;47.42;100028.19;5114170;28;19965;-71
2021/12/22 10:39:15;;;;;;;;;;;;;;;2.58;47.40;100023.13;5113807;28;20298;-71
2021/12/22 10:41:40;;;;;;;;;;;;;;;2.64;47.02;100023.16;5114197;28;19915;-72
2021/12/22 10:44:07;;;;;;;;;;;;;;;2.71;47.42;100023.97;5113805;28;19980;-72
2021/12/22 10:46:35;;;;;;;;;;;;;;;2.72;46.65;100022.97;5114111;28;19920;-72
2021/12/22 10:49:14;;;;;;;;;;;;;;;2.78;45.19;100020.53;5113953;28;19926;-72
2021/12/22 10:51:42;;;;;;;;;;;;;;;2.77;44.98;100013.63;5113907;28;20007;-72
2021/12/22 10:54:09;;;;;;;;;;;;;;;2.79;45.65;100019.53;5113565;28;19926;-72
2021/12/22 10:56:45;;;;;;;;;;;;;;;2.81;44.88;100007.72;5113752;28;19949;-72
2021/12/22 10:59:12;;;;;;;;;;;;;;;2.83;45.53;100013.63;5095250;28;20195;-72
2021/12/22 11:01:38;;;;;;;;;;;;;;;2.90;46.18;100020.75;5113971;28;19919;-72
2021/12/22 11:04:13;;;;;;;;;;;;;;;2.93;45.96;100013.25;5095097;28;20323;-72
2021/12/22 11:06:39;;;;;;;;;;;;;;;2.98;46.55;100012.63;5113624;28;20014;-72
2021/12/22 11:09:15;;;;;;;;;;;;;;;3.00;46.16;100011.44;5113338;28;20006;-72
2021/12/22 11:11:45;;;;;;;;;;;;;;;3.01;45.92;99999.81;5113517;28;19922;-72
2021/12/22 11:14:22;;;;;;;;;;;;;;;2.94;45.51;100004.31;5095046;28;20064;-72
2021/12/22 11:17:00;;;;;;;;;;;;;;;2.91;46.46;99998.63;5113271;28;20389;-72
2021/12/22 11:19:27;;;;;;;;;;;;;;;2.90;45.71;99992.50;5113493;28;19969;-72
2021/12/22 11:22:09;;;;;;;;;;;;;;;2.88;46.48;100005.91;5113150;28;19923;-72
2021/12/22 11:24:37;;;;;;;;;;;;;;;2.88;46.30;100005.91;5113133;28;19915;-71
2021/12/22 11:27:03;;;;;;;;;;;;;;;2.83;45.77;99996.97;5112961;28;19920;-71
2021/12/22 11:29:29;;;;;;;;;;;;;;;2.78;45.75;99988.84;5094664;28;19923;-71
2021/12/22 11:31:54;;;;;;;;;;;;;;;2.77;46.67;99992.47;5112768;28;20389;-71
2021/12/22 11:34:20;;;;;;;;;;;;;;;2.78;46.22;99975.63;5113013;28;19923;-72
2021/12/22 11:36:46;;;;;;;;;;;;;;;2.75;45.86;99968.91;5113090;28;19916;-71
2021/12/22 11:39:12;;;;;;;;;;;;;;;2.74;45.13;99971.78;5112685;28;19922;-72
2021/12/22 11:41:54;;;;;;;;;;;;;;;2.75;45.32;99962.81;5112931;28;20002;-71
2021/12/22 11:44:19;;;;;;;;;;;;;;;2.80;45.48;99961.19;5094717;28;19916;-72
2021/12/22 11:46:46;;;;;;;;;;;;;;;2.79;45.28;99956.91;5094737;28;20298;-73
2021/12/22 11:49:11;;;;;;;;;;;;;;;2.82;45.48;99955.69;5112003;28;19916;-73
2021/12/22 11:51:36;;;;;;;;;;;;;;;2.86;44.94;99957.75;5112533;28;20437;-73
2021/12/22 11:54:09;;;;;;;;;;;;;;;2.88;44.55;99962.81;5094239;28;20006;-73
2021/12/22 11:56:37;;;;;;;;;;;;;;;2.93;44.65;99960.41;5094456;28;19915;-73
2021/12/22 11:59:02;;;;;;;;;;;;;;;2.96;44.49;99953.91;5094166;28;19920;-73
2021/12/22 12:01:28;;;;;;;;;;;;;;;2.96;44.50;99956.53;5112471;28;19923;-73
2021/12/22 12:04:10;;;;;;;;;;;;;;;2.96;44.44;99949.41;5112083;28;19919;-73
2021/12/22 12:06:49;;;;;;;;;;;;;;;2.93;43.87;99952.47;5112161;28;19969;-71
2021/12/22 12:09:15;;;;;;;;;;;;;;;2.95;43.89;99946.97;5112112;28;19923;-71
2021/12/22 12:11:49;;;;;;;;;;;;;;;2.92;44.04;99944.72;5111853;28;19920;-71
2021/12/22 12:23:17;;;;;;;;;;;;;;;2.82;44.65;99938.03;5111153;28;19923;-73
2021/12/22 12:25:42;;;;;;;;;;;;;;;2.77;44.40;99932.56;5111070;28;19949;-73
2021/12/22 12:28:17;;;;;;;;;;;;;;;2.79;44.76;99942.91;5111223;28;19920;-71
2021/12/22 12:30:46;;;;;;;;;;;;;;;2.82;44.09;99942.50;5111091;28;19927;-73
2021/12/22 12:33:23;;;;;;;;;;;;;;;2.84;44.04;99946.56;5111225;28;19916;-72
2021/12/22 12:35:59;;;;;;;;;;;;;;;2.87;44.67;99954.09;5110876;28;20310;-72
2021/12/22 12:38:27;;;;;;;;;;;;;;;2.86;44.55;99951.66;5111468;28;19971;-72
2021/12/22 12:40:58;;;;;;;;;;;;;;;2.86;43.12;99941.88;5110893;28;20068;-72
2021/12/22 12:43:45;;;;;;;;;;;;;;;2.78;42.97;99938.63;5111319;28;19919;-72
2021/12/22 12:46:19;;;;;;;;;;;;;;;2.71;43.56;99935.97;5092696;28;19916;-72
2021/12/22 12:48:45;;;;;;;;;;;;;;;2.74;43.16;99937.44;5111268;28;19950;-72
2021/12/22 12:51:34;;;;;;;;;;;;;;;2.74;42.59;99940.88;5111121;28;19920;-72
2021/12/22 12:54:02;;;;;;;;;;;;;;;2.64;42.47;99936.00;5099914;28;19916;-72
2021/12/22 12:56:31;;;;;;;;;;;;;;;2.62;43.25;99938.00;5111241;28;20010;-72
2021/12/22 12:59:01;;;;;;;;;;;;;;;2.53;42.85;99936.59;5110940;28;19965;-72
2021/12/22 13:01:49;;;;;;;;;;;;;;;2.47;43.40;99935.56;5113067;28;19916;-72
2021/12/22 13:04:34;;;;;;;;;;;;;;;2.42;43.71;99934.53;5115491;28;19916;-74
2021/12/22 13:07:07;;;;;;;;;;;;;;;2.38;44.34;99929.66;5096583;28;19919;-73
2021/12/22 13:09:33;;;;;;;;;;;;;;;2.39;43.99;99933.94;5097001;28;20004;-73